sensor_id;sensor_type;location;lat;lon;timestamp;temperature;humidity
42261;DHT22;27926;48.062;7.474;2022-07-25T00:02:09;19.90;99.90
42261;DHT22;27926;48.062;7.474;2022-07-25T00:04:34;19.80;99.90
42261;DHT22;27926;48.062;7.474;2022-07-25T00:06:58;19.70;99.90
42261;DHT22;27926;48.062;7.474;2022-07-25T00:09:23;19.70;99.90
42261;DHT22;27926;48.062;7.474;2022-07-25T00:11:47;19.60;99.90
42261;DHT22;27926;48.062;7.474;2022-07-25T00:14:12;19.50;99.90
42261;DHT22;27926;48.062;7.474;2022-07-25T00:16:37;19.50;99.90
42261;DHT22;27926;48.062;7.474;2022-07-25T00:19:02;19.40;99.90
42261;DHT22;27926;48.062;7.474;2022-07-25T00:21:27;19.50;99.90
42261;DHT22;27926;48.062;7.474;2022-07-25T00:23:52;19.40;99.90
42261;DHT22;27926;48.062;7.474;2022-07-25T00:26:16;19.40;99.90
42261;DHT22;27926;48.062;7.474;2022-07-25T00:28:42;19.30;99.90
42261;DHT22;27926;48.062;7.474;2022-07-25T00:31:07;19.20;99.90
42261;DHT22;27926;48.062;7.474;2022-07-25T00:33:31;19.20;99.90
42261;DHT22;27926;48.062;7.474;2022-07-25T00:35:56;19.20;99.90
42261;DHT22;27926;48.062;7.474;2022-07-25T00:38:21;19.10;99.90
42261;DHT22;27926;48.062;7.474;2022-07-25T00:40:45;19.10;99.90
42261;DHT22;27926;48.062;7.474;2022-07-25T00:43:10;19.10;99.90
42261;DHT22;27926;48.062;7.474;2022-07-25T00:45:35;19.10;99.90
42261;DHT22;27926;48.062;7.474;2022-07-25T00:47:59;19.10;99.90
42261;DHT22;27926;48.062;7.474;2022-07-25T00:50:24;19.00;99.90
42261;DHT22;27926;48.062;7.474;2022-07-25T00:52:49;19.00;99.90
42261;DHT22;27926;48.062;7.474;2022-07-25T00:55:14;19.00;99.90
42261;DHT22;27926;48.062;7.474;2022-07-25T00:57:39;19.00;99.90
42261;DHT22;27926;48.062;7.474;2022-07-25T01:00:11;19.00;99.90
42261;DHT22;27926;48.062;7.474;2022-07-25T01:02:36;19.00;99.90
42261;DHT22;27926;48.062;7.474;2022-07-25T01:05:02;19.00;99.90
42261;DHT22;27926;48.062;7.474;2022-07-25T01:07:28;19.00;99.90
42261;DHT22;27926;48.062;7.474;2022-07-25T01:09:53;19.00;99.90
42261;DHT22;27926;48.062;7.474;2022-07-25T01:12:18;19.00;99.90
42261;DHT22;27926;48.062;7.474;2022-07-25T01:14:43;19.00;99.90
42261;DHT22;27926;48.062;7.474;2022-07-25T01:17:07;19.00;99.90
42261;DHT22;27926;48.062;7.474;2022-07-25T01:19:32;19.00;99.90
42261;DHT22;27926;48.062;7.474;2022-07-25T01:21:56;19.00;99.90
42261;DHT22;27926;48.062;7.474;2022-07-25T01:24:21;19.00;99.90
42261;DHT22;27926;48.062;7.474;2022-07-25T01:26:46;19.00;99.90
42261;DHT22;27926;48.062;7.474;2022-07-25T01:29:10;18.90;99.90
42261;DHT22;27926;48.062;7.474;2022-07-25T01:31:35;18.90;99.90
42261;DHT22;27926;48.062;7.474;2022-07-25T01:34:00;18.90;99.90
42261;DHT22;27926;48.062;7.474;2022-07-25T01:36:25;18.80;99.90
42261;DHT22;27926;48.062;7.474;2022-07-25T01:38:49;18.80;99.90
42261;DHT22;27926;48.062;7.474;2022-07-25T01:41:14;18.80;99.90
42261;DHT22;27926;48.062;7.474;2022-07-25T01:43:38;18.80;99.90
42261;DHT22;27926;48.062;7.474;2022-07-25T01:46:03;18.80;99.90
42261;DHT22;27926;48.062;7.474;2022-07-25T01:48:28;18.70;99.90
42261;DHT22;27926;48.062;7.474;2022-07-25T01:50:53;18.70;99.90
42261;DHT22;27926;48.062;7.474;2022-07-25T01:53:17;18.70;99.90
42261;DHT22;27926;48.062;7.474;2022-07-25T01:55:46;18.70;99.90
42261;DHT22;27926;48.062;7.474;2022-07-25T01:58:11;18.70;99.90
42261;DHT22;27926;48.062;7.474;2022-07-25T02:00:37;18.60;99.90
42261;DHT22;27926;48.062;7.474;2022-07-25T02:03:02;18.60;99.90
42261;DHT22;27926;48.062;7.474;2022-07-25T02:05:45;18.60;99.90
42261;DHT22;27926;48.062;7.474;2022-07-25T02:08:09;18.60;99.90
42261;DHT22;27926;48.062;7.474;2022-07-25T02:10:34;18.60;99.90
42261;DHT22;27926;48.062;7.474;2022-07-25T02:12:59;18.60;99.90
42261;DHT22;27926;48.062;7.474;2022-07-25T02:15:24;18.60;99.90
42261;DHT22;27926;48.062;7.474;2022-07-25T02:17:49;18.50;99.90
42261;DHT22;27926;48.062;7.474;2022-07-25T02:20:14;18.50;99.90
42261;DHT22;27926;48.062;7.474;2022-07-25T02:22:38;18.40;99.90
42261;DHT22;27926;48.062;7.474;2022-07-25T02:25:03;18.40;99.90
42261;DHT22;27926;48.062;7.474;2022-07-25T02:27:28;18.40;99.90
42261;DHT22;27926;48.062;7.474;2022-07-25T02:29:52;18.40;99.90
42261;DHT22;27926;48.062;7.474;2022-07-25T02:32:17;18.40;99.90
42261;DHT22;27926;48.062;7.474;2022-07-25T02:34:42;18.40;99.90
42261;DHT22;27926;48.062;7.474;2022-07-25T02:37:06;18.40;99.90
42261;DHT22;27926;48.062;7.474;2022-07-25T02:39:31;18.40;99.90
42261;DHT22;27926;48.062;7.474;2022-07-25T02:41:56;18.30;99.90
42261;DHT22;27926;48.062;7.474;2022-07-25T02:44:20;18.30;99.90
42261;DHT22;27926;48.062;7.474;2022-07-25T02:46:45;18.20;99.90
42261;DHT22;27926;48.062;7.474;2022-07-25T02:49:10;18.20;99.90
42261;DHT22;27926;48.062;7.474;2022-07-25T02:51:34;18.20;99.90
42261;DHT22;27926;48.062;7.474;2022-07-25T02:53:59;18.10;99.90
42261;DHT22;27926;48.062;7.474;2022-07-25T02:56:24;18.10;99.90
42261;DHT22;27926;48.062;7.474;2022-07-25T02:58:49;18.10;99.90
42261;DHT22;27926;48.062;7.474;2022-07-25T03:01:14;18.10;99.90
42261;DHT22;27926;48.062;7.474;2022-07-25T03:03:38;18.10;99.90
42261;DHT22;27926;48.062;7.474;2022-07-25T03:06:03;18.10;99.90
42261;DHT22;27926;48.062;7.474;2022-07-25T03:08:28;18.00;99.90
42261;DHT22;27926;48.062;7.474;2022-07-25T03:10:52;18.00;99.90
42261;DHT22;27926;48.062;7.474;2022-07-25T03:13:17;17.90;99.90
42261;DHT22;27926;48.062;7.474;2022-07-25T03:15:42;17.90;99.90
42261;DHT22;27926;48.062;7.474;2022-07-25T03:18:06;17.90;99.90
42261;DHT22;27926;48.062;7.474;2022-07-25T03:20:31;17.90;99.90
42261;DHT22;27926;48.062;7.474;2022-07-25T03:22:56;17.80;99.90
42261;DHT22;27926;48.062;7.474;2022-07-25T03:25:20;17.80;99.90
42261;DHT22;27926;48.062;7.474;2022-07-25T03:27:45;17.90;99.90
42261;DHT22;27926;48.062;7.474;2022-07-25T03:30:10;17.90;99.90
42261;DHT22;27926;48.062;7.474;2022-07-25T03:32:35;17.80;99.90
42261;DHT22;27926;48.062;7.474;2022-07-25T03:35:00;17.80;99.90
42261;DHT22;27926;48.062;7.474;2022-07-25T03:37:25;17.80;99.90
42261;DHT22;27926;48.062;7.474;2022-07-25T03:39:49;17.80;99.90
42261;DHT22;27926;48.062;7.474;2022-07-25T03:42:14;17.80;99.90
42261;DHT22;27926;48.062;7.474;2022-07-25T03:44:38;17.80;99.90
42261;DHT22;27926;48.062;7.474;2022-07-25T03:47:04;17.70;99.90
42261;DHT22;27926;48.062;7.474;2022-07-25T03:49:28;17.60;99.90
42261;DHT22;27926;48.062;7.474;2022-07-25T03:51:53;17.50;99.90
42261;DHT22;27926;48.062;7.474;2022-07-25T03:54:18;17.50;99.90
42261;DHT22;27926;48.062;7.474;2022-07-25T03:56:48;17.50;99.90
42261;DHT22;27926;48.062;7.474;2022-07-25T03:59:16;17.50;99.90
42261;DHT22;27926;48.062;7.474;2022-07-25T04:01:43;17.60;99.90
42261;DHT22;27926;48.062;7.474;2022-07-25T04:04:08;17.60;99.90
42261;DHT22;27926;48.062;7.474;2022-07-25T04:06:33;17.70;99.90
42261;DHT22;27926;48.062;7.474;2022-07-25T04:08:58;17.70;99.90
42261;DHT22;27926;48.062;7.474;2022-07-25T04:11:22;17.70;99.90
42261;DHT22;27926;48.062;7.474;2022-07-25T04:13:48;17.70;99.90
42261;DHT22;27926;48.062;7.474;2022-07-25T04:16:13;17.70;99.90
42261;DHT22;27926;48.062;7.474;2022-07-25T04:18:38;17.70;99.90
42261;DHT22;27926;48.062;7.474;2022-07-25T04:21:03;17.70;99.90
42261;DHT22;27926;48.062;7.474;2022-07-25T04:23:28;17.70;99.90
42261;DHT22;27926;48.062;7.474;2022-07-25T04:25:54;17.70;99.90
42261;DHT22;27926;48.062;7.474;2022-07-25T04:28:19;17.80;99.90
42261;DHT22;27926;48.062;7.474;2022-07-25T04:30:44;17.80;99.90
42261;DHT22;27926;48.062;7.474;2022-07-25T04:33:09;17.80;99.90
42261;DHT22;27926;48.062;7.474;2022-07-25T04:35:34;17.80;99.90
42261;DHT22;27926;48.062;7.474;2022-07-25T04:37:59;17.90;99.90
42261;DHT22;27926;48.062;7.474;2022-07-25T04:40:23;18.00;99.90
42261;DHT22;27926;48.062;7.474;2022-07-25T04:42:48;18.10;99.90
42261;DHT22;27926;48.062;7.474;2022-07-25T04:45:13;18.50;99.90
42261;DHT22;27926;48.062;7.474;2022-07-25T04:47:37;19.10;99.90
42261;DHT22;27926;48.062;7.474;2022-07-25T04:50:02;20.00;99.90
42261;DHT22;27926;48.062;7.474;2022-07-25T04:52:27;20.90;99.90
42261;DHT22;27926;48.062;7.474;2022-07-25T04:54:51;21.80;99.90
42261;DHT22;27926;48.062;7.474;2022-07-25T04:57:16;22.60;99.90
42261;DHT22;27926;48.062;7.474;2022-07-25T04:59:41;23.40;99.90
42261;DHT22;27926;48.062;7.474;2022-07-25T05:02:06;24.00;99.90
42261;DHT22;27926;48.062;7.474;2022-07-25T05:04:30;24.70;99.90
42261;DHT22;27926;48.062;7.474;2022-07-25T05:06:55;25.20;99.90
42261;DHT22;27926;48.062;7.474;2022-07-25T05:09:20;25.70;99.90
42261;DHT22;27926;48.062;7.474;2022-07-25T05:11:44;26.00;99.90
42261;DHT22;27926;48.062;7.474;2022-07-25T05:14:09;26.50;99.70
42261;DHT22;27926;48.062;7.474;2022-07-25T05:16:34;27.00;99.40
42261;DHT22;27926;48.062;7.474;2022-07-25T05:18:58;27.60;98.90
42261;DHT22;27926;48.062;7.474;2022-07-25T05:21:23;28.10;98.00
42261;DHT22;27926;48.062;7.474;2022-07-25T05:23:47;28.60;96.90
42261;DHT22;27926;48.062;7.474;2022-07-25T05:26:12;29.00;96.70
42261;DHT22;27926;48.062;7.474;2022-07-25T05:28:37;29.20;96.00
42261;DHT22;27926;48.062;7.474;2022-07-25T05:31:01;29.50;95.40
42261;DHT22;27926;48.062;7.474;2022-07-25T05:33:26;29.80;95.50
42261;DHT22;27926;48.062;7.474;2022-07-25T05:35:51;30.10;94.70
42261;DHT22;27926;48.062;7.474;2022-07-25T05:38:16;30.10;94.00
42261;DHT22;27926;48.062;7.474;2022-07-25T05:40:40;30.00;94.10
42261;DHT22;27926;48.062;7.474;2022-07-25T05:43:05;29.80;94.00
42261;DHT22;27926;48.062;7.474;2022-07-25T05:45:30;29.90;93.90
42261;DHT22;27926;48.062;7.474;2022-07-25T05:47:54;30.00;94.10
42261;DHT22;27926;48.062;7.474;2022-07-25T05:50:19;30.40;93.50
42261;DHT22;27926;48.062;7.474;2022-07-25T05:52:44;30.90;93.30
42261;DHT22;27926;48.062;7.474;2022-07-25T05:55:08;31.30;92.60
42261;DHT22;27926;48.062;7.474;2022-07-25T05:57:34;31.40;92.30
42261;DHT22;27926;48.062;7.474;2022-07-25T05:59:59;31.90;92.20
42261;DHT22;27926;48.062;7.474;2022-07-25T06:02:23;32.50;91.80
42261;DHT22;27926;48.062;7.474;2022-07-25T06:04:48;32.80;91.10
42261;DHT22;27926;48.062;7.474;2022-07-25T06:07:13;32.50;90.90
42261;DHT22;27926;48.062;7.474;2022-07-25T06:09:38;32.30;90.60
42261;DHT22;27926;48.062;7.474;2022-07-25T06:12:03;31.90;91.20
42261;DHT22;27926;48.062;7.474;2022-07-25T06:14:28;31.80;91.50
42261;DHT22;27926;48.062;7.474;2022-07-25T06:16:52;31.80;91.30
42261;DHT22;27926;48.062;7.474;2022-07-25T06:19:17;32.20;91.00
42261;DHT22;27926;48.062;7.474;2022-07-25T06:21:42;32.60;90.80
42261;DHT22;27926;48.062;7.474;2022-07-25T06:24:07;32.80;90.70
42261;DHT22;27926;48.062;7.474;2022-07-25T06:26:32;32.70;90.60
42261;DHT22;27926;48.062;7.474;2022-07-25T06:28:57;32.60;90.30
42261;DHT22;27926;48.062;7.474;2022-07-25T06:31:22;32.70;90.50
42261;DHT22;27926;48.062;7.474;2022-07-25T06:33:47;32.50;90.50
42261;DHT22;27926;48.062;7.474;2022-07-25T06:36:11;32.30;90.50
42261;DHT22;27926;48.062;7.474;2022-07-25T06:38:36;32.00;90.70
42261;DHT22;27926;48.062;7.474;2022-07-25T06:41:01;31.90;90.90
42261;DHT22;27926;48.062;7.474;2022-07-25T06:43:25;31.80;90.90
42261;DHT22;27926;48.062;7.474;2022-07-25T06:45:50;31.80;91.00
42261;DHT22;27926;48.062;7.474;2022-07-25T06:48:15;31.50;91.10
42261;DHT22;27926;48.062;7.474;2022-07-25T06:50:40;31.40;91.30
42261;DHT22;27926;48.062;7.474;2022-07-25T06:53:05;31.40;91.30
42261;DHT22;27926;48.062;7.474;2022-07-25T06:55:29;31.10;91.70
42261;DHT22;27926;48.062;7.474;2022-07-25T06:57:54;31.00;91.90
42261;DHT22;27926;48.062;7.474;2022-07-25T07:00:20;31.10;91.70
42261;DHT22;27926;48.062;7.474;2022-07-25T07:02:54;31.00;91.80
42261;DHT22;27926;48.062;7.474;2022-07-25T07:05:24;31.00;92.30
42261;DHT22;27926;48.062;7.474;2022-07-25T07:07:49;31.00;92.20
42261;DHT22;27926;48.062;7.474;2022-07-25T07:10:15;30.80;92.30
42261;DHT22;27926;48.062;7.474;2022-07-25T07:12:40;30.40;92.60
42261;DHT22;27926;48.062;7.474;2022-07-25T07:15:05;30.10;93.20
42261;DHT22;27926;48.062;7.474;2022-07-25T07:17:30;29.80;93.20
42261;DHT22;27926;48.062;7.474;2022-07-25T07:19:54;29.70;93.40
42261;DHT22;27926;48.062;7.474;2022-07-25T07:22:19;29.60;93.40
42261;DHT22;27926;48.062;7.474;2022-07-25T07:24:44;29.50;94.20
42261;DHT22;27926;48.062;7.474;2022-07-25T07:27:08;29.60;93.70
42261;DHT22;27926;48.062;7.474;2022-07-25T07:29:33;29.80;94.10
42261;DHT22;27926;48.062;7.474;2022-07-25T07:31:57;29.90;93.50
42261;DHT22;27926;48.062;7.474;2022-07-25T07:34:22;29.90;94.10
42261;DHT22;27926;48.062;7.474;2022-07-25T07:36:47;30.00;94.00
42261;DHT22;27926;48.062;7.474;2022-07-25T07:39:11;30.10;94.30
42261;DHT22;27926;48.062;7.474;2022-07-25T07:41:36;30.10;94.20
42261;DHT22;27926;48.062;7.474;2022-07-25T07:44:00;30.30;94.00
42261;DHT22;27926;48.062;7.474;2022-07-25T07:46:25;30.60;94.00
42261;DHT22;27926;48.062;7.474;2022-07-25T07:48:50;30.70;94.10
42261;DHT22;27926;48.062;7.474;2022-07-25T07:51:14;30.70;93.60
42261;DHT22;27926;48.062;7.474;2022-07-25T07:53:39;30.70;93.90
42261;DHT22;27926;48.062;7.474;2022-07-25T07:56:22;30.90;93.70
42261;DHT22;27926;48.062;7.474;2022-07-25T07:58:47;30.80;93.80
42261;DHT22;27926;48.062;7.474;2022-07-25T08:01:12;30.70;93.50
42261;DHT22;27926;48.062;7.474;2022-07-25T08:03:37;30.50;93.90
42261;DHT22;27926;48.062;7.474;2022-07-25T08:06:01;30.20;93.70
42261;DHT22;27926;48.062;7.474;2022-07-25T08:08:26;30.20;94.10
42261;DHT22;27926;48.062;7.474;2022-07-25T08:10:51;30.20;94.00
42261;DHT22;27926;48.062;7.474;2022-07-25T08:13:24;30.40;94.30
42261;DHT22;27926;48.062;7.474;2022-07-25T08:15:52;31.50;94.10
42261;DHT22;27926;48.062;7.474;2022-07-25T08:18:17;30.40;93.90
42261;DHT22;27926;48.062;7.474;2022-07-25T08:20:41;30.60;94.10
42261;DHT22;27926;48.062;7.474;2022-07-25T08:23:06;30.60;93.60
42261;DHT22;27926;48.062;7.474;2022-07-25T08:25:31;30.60;93.20
42261;DHT22;27926;48.062;7.474;2022-07-25T08:27:56;30.50;93.20
42261;DHT22;27926;48.062;7.474;2022-07-25T08:30:21;30.70;93.60
42261;DHT22;27926;48.062;7.474;2022-07-25T08:32:51;31.00;93.20
42261;DHT22;27926;48.062;7.474;2022-07-25T08:35:17;31.20;92.90
42261;DHT22;27926;48.062;7.474;2022-07-25T08:37:42;31.40;92.50
42261;DHT22;27926;48.062;7.474;2022-07-25T08:40:07;31.60;92.10
42261;DHT22;27926;48.062;7.474;2022-07-25T08:42:32;31.70;91.80
42261;DHT22;27926;48.062;7.474;2022-07-25T08:44:59;31.90;91.80
42261;DHT22;27926;48.062;7.474;2022-07-25T08:47:26;32.00;91.20
42261;DHT22;27926;48.062;7.474;2022-07-25T08:49:52;31.90;91.20
42261;DHT22;27926;48.062;7.474;2022-07-25T08:52:18;32.00;91.20
42261;DHT22;27926;48.062;7.474;2022-07-25T08:54:45;32.00;90.90
42261;DHT22;27926;48.062;7.474;2022-07-25T08:57:11;32.20;90.80
42261;DHT22;27926;48.062;7.474;2022-07-25T08:59:35;32.20;90.50
42261;DHT22;27926;48.062;7.474;2022-07-25T09:02:01;32.30;89.90
42261;DHT22;27926;48.062;7.474;2022-07-25T09:04:32;32.30;90.10
42261;DHT22;27926;48.062;7.474;2022-07-25T09:06:57;32.40;89.70
42261;DHT22;27926;48.062;7.474;2022-07-25T09:09:36;32.50;88.50
42261;DHT22;27926;48.062;7.474;2022-07-25T09:12:02;32.70;89.40
42261;DHT22;27926;48.062;7.474;2022-07-25T09:14:26;32.70;87.90
42261;DHT22;27926;48.062;7.474;2022-07-25T09:16:53;32.70;86.50
42261;DHT22;27926;48.062;7.474;2022-07-25T09:19:23;32.70;86.80
42261;DHT22;27926;48.062;7.474;2022-07-25T09:22:05;32.70;86.60
42261;DHT22;27926;48.062;7.474;2022-07-25T09:24:30;32.70;85.90
42261;DHT22;27926;48.062;7.474;2022-07-25T09:26:58;32.80;85.50
42261;DHT22;27926;48.062;7.474;2022-07-25T09:29:25;32.80;85.30
42261;DHT22;27926;48.062;7.474;2022-07-25T09:31:51;33.00;87.10
42261;DHT22;27926;48.062;7.474;2022-07-25T09:36:54;33.20;85.40
42261;DHT22;27926;48.062;7.474;2022-07-25T09:39:19;33.20;85.20
42261;DHT22;27926;48.062;7.474;2022-07-25T09:41:43;33.40;85.50
42261;DHT22;27926;48.062;7.474;2022-07-25T09:44:18;33.60;82.30
42261;DHT22;27926;48.062;7.474;2022-07-25T09:46:46;33.70;84.30
42261;DHT22;27926;48.062;7.474;2022-07-25T09:49:10;33.60;83.50
42261;DHT22;27926;48.062;7.474;2022-07-25T09:51:38;33.60;82.40
42261;DHT22;27926;48.062;7.474;2022-07-25T09:54:03;33.50;82.80
42261;DHT22;27926;48.062;7.474;2022-07-25T09:56:27;33.30;81.20
42261;DHT22;27926;48.062;7.474;2022-07-25T09:58:52;33.20;82.10
42261;DHT22;27926;48.062;7.474;2022-07-25T10:01:21;33.30;83.70
42261;DHT22;27926;48.062;7.474;2022-07-25T10:03:57;33.30;84.00
42261;DHT22;27926;48.062;7.474;2022-07-25T10:06:42;33.60;83.30
42261;DHT22;27926;48.062;7.474;2022-07-25T10:09:13;33.80;83.10
42261;DHT22;27926;48.062;7.474;2022-07-25T10:11:38;34.00;81.60
42261;DHT22;27926;48.062;7.474;2022-07-25T10:14:09;34.10;82.30
42261;DHT22;27926;48.062;7.474;2022-07-25T10:16:46;34.20;81.40
42261;DHT22;27926;48.062;7.474;2022-07-25T10:19:11;34.40;81.30
42261;DHT22;27926;48.062;7.474;2022-07-25T10:21:36;34.60;81.60
42261;DHT22;27926;48.062;7.474;2022-07-25T10:24:08;34.70;81.30
42261;DHT22;27926;48.062;7.474;2022-07-25T10:26:38;34.60;81.20
42261;DHT22;27926;48.062;7.474;2022-07-25T10:29:07;34.70;81.00
42261;DHT22;27926;48.062;7.474;2022-07-25T10:31:39;34.70;82.40
42261;DHT22;27926;48.062;7.474;2022-07-25T10:34:07;34.40;82.10
42261;DHT22;27926;48.062;7.474;2022-07-25T10:36:48;34.40;81.30
42261;DHT22;27926;48.062;7.474;2022-07-25T10:39:16;34.40;81.50
42261;DHT22;27926;48.062;7.474;2022-07-25T10:41:48;34.40;82.00
42261;DHT22;27926;48.062;7.474;2022-07-25T10:44:14;34.40;81.70
42261;DHT22;27926;48.062;7.474;2022-07-25T10:46:39;34.20;82.60
42261;DHT22;27926;48.062;7.474;2022-07-25T10:49:06;34.20;82.00
42261;DHT22;27926;48.062;7.474;2022-07-25T10:51:33;34.00;83.10
42261;DHT22;27926;48.062;7.474;2022-07-25T10:53:58;33.90;83.20
42261;DHT22;27926;48.062;7.474;2022-07-25T10:56:25;33.80;84.90
42261;DHT22;27926;48.062;7.474;2022-07-25T10:58:58;33.80;85.20
42261;DHT22;27926;48.062;7.474;2022-07-25T11:01:32;33.80;86.60
42261;DHT22;27926;48.062;7.474;2022-07-25T11:04:12;33.80;87.00
42261;DHT22;27926;48.062;7.474;2022-07-25T11:06:40;34.10;86.70
42261;DHT22;27926;48.062;7.474;2022-07-25T11:09:26;34.30;84.90
42261;DHT22;27926;48.062;7.474;2022-07-25T11:11:51;34.40;84.80
42261;DHT22;27926;48.062;7.474;2022-07-25T11:14:25;34.50;83.60
42261;DHT22;27926;48.062;7.474;2022-07-25T11:16:53;34.70;83.20
42261;DHT22;27926;48.062;7.474;2022-07-25T11:19:25;34.70;82.70
42261;DHT22;27926;48.062;7.474;2022-07-25T11:21:55;34.70;80.30
42261;DHT22;27926;48.062;7.474;2022-07-25T11:24:21;34.70;79.20
42261;DHT22;27926;48.062;7.474;2022-07-25T11:29:22;35.00;76.10
42261;DHT22;27926;48.062;7.474;2022-07-25T11:32:02;35.30;76.40
42261;DHT22;27926;48.062;7.474;2022-07-25T11:34:29;35.60;79.50
42261;DHT22;27926;48.062;7.474;2022-07-25T11:36:55;35.60;77.00
42261;DHT22;27926;48.062;7.474;2022-07-25T11:39:21;35.70;77.90
42261;DHT22;27926;48.062;7.474;2022-07-25T11:41:46;35.70;76.00
42261;DHT22;27926;48.062;7.474;2022-07-25T11:44:10;35.50;75.70
42261;DHT22;27926;48.062;7.474;2022-07-25T11:46:44;35.50;77.20
42261;DHT22;27926;48.062;7.474;2022-07-25T11:49:09;35.80;79.30
42261;DHT22;27926;48.062;7.474;2022-07-25T11:51:37;36.10;76.10
42261;DHT22;27926;48.062;7.474;2022-07-25T11:54:07;36.10;76.40
42261;DHT22;27926;48.062;7.474;2022-07-25T11:56:36;36.00;76.60
42261;DHT22;27926;48.062;7.474;2022-07-25T11:59:02;35.60;76.70
42261;DHT22;27926;48.062;7.474;2022-07-25T12:01:34;35.30;75.80
42261;DHT22;27926;48.062;7.474;2022-07-25T12:04:13;35.30;78.20
42261;DHT22;27926;48.062;7.474;2022-07-25T12:06:38;35.40;76.90
42261;DHT22;27926;48.062;7.474;2022-07-25T12:09:11;35.40;76.60
42261;DHT22;27926;48.062;7.474;2022-07-25T12:11:36;35.60;77.30
42261;DHT22;27926;48.062;7.474;2022-07-25T12:14:04;35.50;77.60
42261;DHT22;27926;48.062;7.474;2022-07-25T12:16:30;35.80;76.10
42261;DHT22;27926;48.062;7.474;2022-07-25T12:18:55;36.00;75.00
42261;DHT22;27926;48.062;7.474;2022-07-25T12:21:19;36.10;76.20
42261;DHT22;27926;48.062;7.474;2022-07-25T12:23:47;35.90;75.10
42261;DHT22;27926;48.062;7.474;2022-07-25T12:26:11;35.60;75.50
42261;DHT22;27926;48.062;7.474;2022-07-25T12:28:37;35.40;76.40
42261;DHT22;27926;48.062;7.474;2022-07-25T12:31:02;35.20;75.70
42261;DHT22;27926;48.062;7.474;2022-07-25T12:33:27;35.40;77.20
42261;DHT22;27926;48.062;7.474;2022-07-25T12:35:52;35.60;77.50
42261;DHT22;27926;48.062;7.474;2022-07-25T12:38:17;35.70;78.00
42261;DHT22;27926;48.062;7.474;2022-07-25T12:40:41;35.70;79.30
42261;DHT22;27926;48.062;7.474;2022-07-25T12:43:06;35.60;79.20
42261;DHT22;27926;48.062;7.474;2022-07-25T12:45:30;35.60;79.50
42261;DHT22;27926;48.062;7.474;2022-07-25T12:47:55;35.60;80.10
42261;DHT22;27926;48.062;7.474;2022-07-25T12:50:20;35.70;77.20
42261;DHT22;27926;48.062;7.474;2022-07-25T12:52:45;35.70;77.40
42261;DHT22;27926;48.062;7.474;2022-07-25T12:55:13;35.50;77.80
42261;DHT22;27926;48.062;7.474;2022-07-25T12:57:39;35.10;77.50
42261;DHT22;27926;48.062;7.474;2022-07-25T13:00:06;34.90;76.20
42261;DHT22;27926;48.062;7.474;2022-07-25T13:02:31;34.40;75.80
42261;DHT22;27926;48.062;7.474;2022-07-25T13:04:56;34.20;77.00
42261;DHT22;27926;48.062;7.474;2022-07-25T13:07:20;34.10;77.30
42261;DHT22;27926;48.062;7.474;2022-07-25T13:09:45;34.00;76.00
42261;DHT22;27926;48.062;7.474;2022-07-25T13:12:10;34.00;77.50
42261;DHT22;27926;48.062;7.474;2022-07-25T13:14:34;33.80;77.40
42261;DHT22;27926;48.062;7.474;2022-07-25T13:16:59;33.60;79.30
42261;DHT22;27926;48.062;7.474;2022-07-25T13:19:24;33.70;79.90
42261;DHT22;27926;48.062;7.474;2022-07-25T13:21:48;33.70;78.70
42261;DHT22;27926;48.062;7.474;2022-07-25T13:24:13;33.60;78.90
42261;DHT22;27926;48.062;7.474;2022-07-25T13:26:38;33.50;78.20
42261;DHT22;27926;48.062;7.474;2022-07-25T13:29:03;33.30;79.20
42261;DHT22;27926;48.062;7.474;2022-07-25T13:31:31;33.30;79.10
42261;DHT22;27926;48.062;7.474;2022-07-25T13:33:56;33.20;79.50
42261;DHT22;27926;48.062;7.474;2022-07-25T13:36:21;33.20;80.70
42261;DHT22;27926;48.062;7.474;2022-07-25T13:38:45;33.60;81.40
42261;DHT22;27926;48.062;7.474;2022-07-25T13:41:11;34.00;78.20
42261;DHT22;27926;48.062;7.474;2022-07-25T13:43:36;33.80;77.10
42261;DHT22;27926;48.062;7.474;2022-07-25T13:46:01;33.70;78.00
42261;DHT22;27926;48.062;7.474;2022-07-25T13:48:25;33.80;78.90
42261;DHT22;27926;48.062;7.474;2022-07-25T13:50:50;33.70;77.60
42261;DHT22;27926;48.062;7.474;2022-07-25T13:53:15;33.80;78.00
42261;DHT22;27926;48.062;7.474;2022-07-25T13:55:40;33.60;77.90
42261;DHT22;27926;48.062;7.474;2022-07-25T13:58:05;33.50;76.80
42261;DHT22;27926;48.062;7.474;2022-07-25T14:00:29;33.40;77.60
42261;DHT22;27926;48.062;7.474;2022-07-25T14:02:54;33.30;76.90
42261;DHT22;27926;48.062;7.474;2022-07-25T14:05:19;33.30;78.00
42261;DHT22;27926;48.062;7.474;2022-07-25T14:07:43;33.50;78.30
42261;DHT22;27926;48.062;7.474;2022-07-25T14:10:08;33.60;78.90
42261;DHT22;27926;48.062;7.474;2022-07-25T14:12:34;33.50;78.00
42261;DHT22;27926;48.062;7.474;2022-07-25T14:14:59;33.40;77.00
42261;DHT22;27926;48.062;7.474;2022-07-25T14:17:24;33.50;80.00
42261;DHT22;27926;48.062;7.474;2022-07-25T14:19:48;33.60;78.90
42261;DHT22;27926;48.062;7.474;2022-07-25T14:22:13;33.70;78.30
42261;DHT22;27926;48.062;7.474;2022-07-25T14:24:38;33.80;78.50
42261;DHT22;27926;48.062;7.474;2022-07-25T14:27:03;33.80;77.60
42261;DHT22;27926;48.062;7.474;2022-07-25T14:29:27;33.80;78.70
42261;DHT22;27926;48.062;7.474;2022-07-25T14:31:52;33.80;77.50
42261;DHT22;27926;48.062;7.474;2022-07-25T14:34:17;33.80;77.60
42261;DHT22;27926;48.062;7.474;2022-07-25T14:36:42;33.70;77.20
42261;DHT22;27926;48.062;7.474;2022-07-25T14:39:08;33.40;78.00
42261;DHT22;27926;48.062;7.474;2022-07-25T14:41:33;33.10;76.90
42261;DHT22;27926;48.062;7.474;2022-07-25T14:43:57;32.90;78.20
42261;DHT22;27926;48.062;7.474;2022-07-25T14:46:23;32.70;78.20
42261;DHT22;27926;48.062;7.474;2022-07-25T14:48:47;32.80;78.70
42261;DHT22;27926;48.062;7.474;2022-07-25T14:51:12;32.90;79.30
42261;DHT22;27926;48.062;7.474;2022-07-25T14:53:37;33.00;79.40
42261;DHT22;27926;48.062;7.474;2022-07-25T14:56:03;32.90;79.20
42261;DHT22;27926;48.062;7.474;2022-07-25T14:58:28;32.90;80.00
42261;DHT22;27926;48.062;7.474;2022-07-25T15:00:52;33.20;80.30
42261;DHT22;27926;48.062;7.474;2022-07-25T15:03:17;33.30;80.80
42261;DHT22;27926;48.062;7.474;2022-07-25T15:05:42;33.30;80.70
42261;DHT22;27926;48.062;7.474;2022-07-25T15:08:06;33.10;81.40
42261;DHT22;27926;48.062;7.474;2022-07-25T15:10:31;32.90;81.00
42261;DHT22;27926;48.062;7.474;2022-07-25T15:12:56;32.80;80.70
42261;DHT22;27926;48.062;7.474;2022-07-25T15:15:20;32.70;81.40
42261;DHT22;27926;48.062;7.474;2022-07-25T15:17:45;32.70;80.90
42261;DHT22;27926;48.062;7.474;2022-07-25T15:20:10;32.70;81.30
42261;DHT22;27926;48.062;7.474;2022-07-25T15:22:35;32.60;81.40
42261;DHT22;27926;48.062;7.474;2022-07-25T15:24:59;32.70;82.80
42261;DHT22;27926;48.062;7.474;2022-07-25T15:27:24;32.50;79.20